Messwerte Ziguinchor

Temperatur

Temperatur
°C
1560898800 23.00 23.00 28
1560902400 0.00 0.00 27
1560906000 1.00 1.00
1560909600 2.00 2.00
1560913200 3.00 3.00 23
1560916800 4.00 4.00
1560920400 5.00 5.00
1560924000 6.00 6.00 24
1560927600 7.00 7.00 23
1560931200 8.00 8.00 24
1560934800 9.00 9.00 27
1560938400 10.00 10.00 29
1560942000 11.00 11.00
1560945600 12.00 12.00 33
1560949200 13.00 13.00 34
1560952800 14.00 14.00 34
1560956400 15.00 15.00 35
1560960000 16.00 16.00 35
1560963600 17.00 17.00 34
1560967200 18.00 18.00 34
1560970800 19.00 19.00 33
1560974400 20.00 20.00 31
1560978000 21.00 21.00 29
1560981600 22.00 22.00 28

Aktuellste Messwerte

Wettercharakter
Wetter: meist klar
Temperatur
28 °C
Feuchtigkeit
75 %
Wind
5 km/hWindrichtung: West
Luftdruck
1015 hPa
Messzeit: 19. Juni 2019, 22.00Datenquelle: METAR

Weitere Messstationen in der Nähe

Messstation Temperatur Entfernung
Cap Skirring 27 °C 55 km
Banjul 27 °C 82 km
Bissau 28 °C 100 km
Dakar 24 °C 276 km
Tambacounda 36 °C 311 km
Saint-Louis 23 °C 392 km

Wind

Windrichtung Böen Mittelwind
° km/h km/h
1560898800 23.00 22.00 - 23.00 220° 10
1560902400 0.00 23.00 - 0.00 140° 10
1560906000 1.00 0.00 - 1.00
1560909600 2.00 1.00 - 2.00
1560913200 3.00 2.00 - 3.00 5
1560916800 4.00 3.00 - 4.00
1560920400 5.00 4.00 - 5.00
1560924000 6.00 5.00 - 6.00 5
1560927600 7.00 6.00 - 7.00 5
1560931200 8.00 7.00 - 8.00 5
1560934800 9.00 8.00 - 9.00 60° 5
1560938400 10.00 9.00 - 10.00 100° 5
1560942000 11.00 10.00 - 11.00
1560945600 12.00 11.00 - 12.00 220° 5
1560949200 13.00 12.00 - 13.00 220° 5
1560952800 14.00 13.00 - 14.00 260° 10
1560956400 15.00 14.00 - 15.00 280° 10
1560960000 16.00 15.00 - 16.00 10
1560963600 17.00 16.00 - 17.00 240° 10
1560967200 18.00 17.00 - 18.00 220° 15
1560970800 19.00 18.00 - 19.00 240° 10
1560974400 20.00 19.00 - 20.00 260° 5
1560978000 21.00 20.00 - 21.00 260° 10
1560981600 22.00 21.00 - 22.00 260° 5

Ihre Wetterstation

Fehlt Ihre Wetterstation auf unserem Portal?

Schreiben Sie an network@meteonews.ch

Klima

Wann ist es am wärmsten? Wann regnet es am wenigsten? Unsere Klimadaten geben Auskunft.